Time;durP1;ratioP1;P1;durP2;ratioP2;P2;SDS_P1;SDS_P2;PMS_P1;PMS_P2;Temp;Humidity;BMP_temperature;BMP_pressure;BME280_temperature;BME280_humidity;BME280_pressure;Samples;Min_cycle;Max_cycle;Signal;HPM_P1;HPM_P2
2021/06/23 00:01:00;;;;;;;4.90;4.40;;;21.40;90.40;;;;;;5093696;28;20466;-66
2021/06/23 00:03:27;;;;;;;5.07;4.57;;;21.40;90.50;;;;;;5093380;28;20472;-65
2021/06/23 00:05:54;;;;;;;6.97;5.30;;;21.40;90.60;;;;;;5094024;28;20462;-66
2021/06/23 00:08:21;;;;;;;8.50;5.40;;;21.40;90.60;;;;;;5093895;28;20476;-66
2021/06/23 00:10:51;;;;;;;5.00;4.60;;;21.30;90.60;;;;;;5092487;28;20464;-66
2021/06/23 00:13:19;;;;;;;5.23;4.80;;;21.40;90.70;;;;;;5085301;28;20535;-66
2021/06/23 00:15:46;;;;;;;6.00;5.10;;;21.30;90.70;;;;;;5087903;28;20489;-66
2021/06/23 00:18:13;;;;;;;5.37;4.97;;;21.30;90.80;;;;;;5092495;28;20802;-66
2021/06/23 00:20:40;;;;;;;7.27;5.17;;;21.30;90.80;;;;;;5088164;28;20808;-66
2021/06/23 00:23:07;;;;;;;4.50;4.10;;;21.30;90.80;;;;;;5071484;28;20476;-66
2021/06/23 00:25:34;;;;;;;7.13;4.20;;;21.30;90.80;;;;;;5071067;28;20465;-66
2021/06/23 00:28:03;;;;;;;5.17;4.60;;;21.30;90.80;;;;;;5073367;28;20801;-66
2021/06/23 00:30:30;;;;;;;4.67;4.27;;;21.20;90.80;;;;;;5073279;28;20479;-66
2021/06/23 00:33:04;;;;;;;5.90;4.47;;;21.20;90.80;;;;;;5078618;28;20959;-66
2021/06/23 00:35:30;;;;;;;3.90;3.60;;;21.20;90.90;;;;;;5092758;28;20826;-66
2021/06/23 00:37:57;;;;;;;4.63;3.67;;;21.20;90.90;;;;;;5091998;28;20496;-66
2021/06/23 00:40:24;;;;;;;5.70;4.63;;;21.20;91.00;;;;;;5091708;28;20476;-67
2021/06/23 00:42:53;;;;;;;4.90;4.50;;;21.10;91.10;;;;;;5090555;28;20445;-66
2021/06/23 00:45:22;;;;;;;7.30;4.37;;;21.10;91.20;;;;;;5091801;28;20668;-67
2021/06/23 00:47:52;;;;;;;5.57;4.27;;;21.10;91.20;;;;;;5091150;28;20464;-66
2021/06/23 00:50:20;;;;;;;5.63;4.77;;;21.10;91.10;;;;;;5092698;28;20471;-66
2021/06/23 00:52:48;;;;;;;4.80;4.30;;;21.10;91.10;;;;;;5093109;28;21935;-65
2021/06/23 00:55:21;;;;;;;8.27;4.20;;;21.00;91.10;;;;;;5093353;28;20476;-65
2021/06/23 00:57:50;;;;;;;7.13;5.10;;;21.00;91.10;;;;;;5093276;28;20819;-65
2021/06/23 01:00:19;;;;;;;4.00;3.60;;;21.00;91.30;;;;;;5092991;28;20458;-65
2021/06/23 01:02:49;;;;;;;5.23;4.30;;;21.00;91.80;;;;;;5093301;28;20540;-66
2021/06/23 01:05:17;;;;;;;5.27;4.53;;;21.00;91.50;;;;;;5092817;28;20472;-65
2021/06/23 01:07:46;;;;;;;5.30;4.80;;;20.90;91.70;;;;;;5093304;28;20469;-66
2021/06/23 01:10:14;;;;;;;5.20;4.77;;;20.90;91.80;;;;;;5092800;28;20460;-66
2021/06/23 01:12:56;;;;;;;6.67;5.40;;;20.90;91.90;;;;;;5089817;28;20466;-66
2021/06/23 01:15:24;;;;;;;6.30;4.33;;;20.90;92.00;;;;;;5072571;28;20550;-66
2021/06/23 01:17:53;;;;;;;4.90;4.40;;;20.90;92.10;;;;;;5078848;28;20814;-66
2021/06/23 01:20:20;;;;;;;5.60;4.50;;;20.80;92.10;;;;;;5092473;28;20471;-66
2021/06/23 01:22:48;;;;;;;5.03;4.63;;;20.80;92.20;;;;;;5092994;28;20464;-66
2021/06/23 01:25:16;;;;;;;6.20;5.60;;;20.80;92.60;;;;;;5092590;28;20475;-66
2021/06/23 01:27:45;;;;;;;4.77;4.30;;;20.80;92.30;;;;;;5092800;28;20469;-66
2021/06/23 01:30:14;;;;;;;4.93;4.40;;;20.80;92.30;;;;;;5092375;28;20469;-66
2021/06/23 01:32:42;;;;;;;5.20;4.70;;;20.90;92.40;;;;;;5078268;28;20477;-66
2021/06/23 01:35:09;;;;;;;6.50;4.63;;;20.90;92.40;;;;;;5092295;28;20465;-66
2021/06/23 01:37:37;;;;;;;6.50;5.37;;;20.90;92.50;;;;;;5092766;28;20472;-66
2021/06/23 01:40:06;;;;;;;5.23;4.77;;;20.80;92.70;;;;;;5092269;28;20466;-66
2021/06/23 01:42:33;;;;;;;6.00;4.90;;;20.80;93.00;;;;;;5091871;28;20476;-66
2021/06/23 01:45:01;;;;;;;5.20;4.63;;;20.80;93.30;;;;;;5091856;28;20495;-66
2021/06/23 01:47:28;;;;;;;4.80;4.30;;;20.80;93.50;;;;;;5090728;28;20472;-66
2021/06/23 01:49:55;;;;;;;5.17;4.67;;;20.80;93.70;;;;;;5090800;28;20462;-66
2021/06/23 01:52:22;;;;;;;5.53;4.93;;;20.80;93.90;;;;;;5090352;28;20966;-66
2021/06/23 01:54:50;;;;;;;6.43;4.40;;;20.80;94.10;;;;;;5095132;28;20472;-66
2021/06/23 01:57:18;;;;;;;7.17;4.23;;;20.70;94.30;;;;;;5095075;28;20473;-66
2021/06/23 01:59:47;;;;;;;5.70;4.97;;;20.70;94.40;;;;;;5096083;28;20483;-66
2021/06/23 02:02:24;;;;;;;5.20;4.80;;;20.70;94.50;;;;;;5096332;28;20480;-66
2021/06/23 02:04:53;;;;;;;4.83;4.43;;;20.70;94.60;;;;;;5096444;28;20486;-66
2021/06/23 02:08:08;;;;;;;5.43;5.00;;;20.60;94.60;;;;;;5095184;28;20465;-66
2021/06/23 02:10:55;;;;;;;6.83;5.53;;;20.70;94.60;;;;;;5096550;28;20462;-66
2021/06/23 02:13:58;;;;;;;5.93;4.57;;;20.60;94.30;;;;;;5086858;28;20457;-66
2021/06/23 02:16:26;;;;;;;6.90;5.70;;;20.50;94.40;;;;;;5053158;28;20460;-66
2021/06/23 02:18:54;;;;;;;5.93;4.87;;;20.50;94.40;;;;;;5075866;28;20565;-66
2021/06/23 02:21:21;;;;;;;5.00;4.60;;;20.50;94.30;;;;;;5075517;28;20466;-66
2021/06/23 02:23:48;;;;;;;8.70;5.00;;;20.50;94.30;;;;;;5076089;28;20462;-65
2021/06/23 02:26:15;;;;;;;5.10;4.60;;;20.40;94.30;;;;;;5075773;28;20971;-66
2021/06/23 02:28:42;;;;;;;5.53;4.17;;;20.40;94.30;;;;;;5076003;28;20868;-65
2021/06/23 02:31:11;;;;;;;7.97;4.20;;;20.40;94.40;;;;;;5075757;28;20470;-65
2021/06/23 02:33:41;;;;;;;5.67;5.13;;;20.30;94.50;;;;;;5086579;28;21215;-65
2021/06/23 02:36:08;;;;;;;4.83;4.43;;;20.30;94.60;;;;;;5096090;28;20816;-65
2021/06/23 02:38:36;;;;;;;5.37;4.53;;;20.20;94.60;;;;;;5095715;28;20461;-65
2021/06/23 02:41:03;;;;;;;7.37;5.70;;;20.20;94.80;;;;;;5095371;28;20991;-66
2021/06/23 02:43:30;;;;;;;5.00;4.40;;;20.20;94.90;;;;;;5095466;28;20490;-66
2021/06/23 02:45:59;;;;;;;5.80;5.30;;;20.10;95.00;;;;;;5095983;28;20555;-65
2021/06/23 02:48:27;;;;;;;5.20;4.80;;;20.10;95.30;;;;;;5095371;28;20473;-66
2021/06/23 02:51:00;;;;;;;5.30;4.90;;;20.10;95.30;;;;;;5095730;28;20468;-66
2021/06/23 02:53:29;;;;;;;6.87;5.73;;;20.00;95.40;;;;;;5095346;28;20478;-66
2021/06/23 02:55:57;;;;;;;6.60;5.67;;;20.00;95.40;;;;;;5095834;28;20465;-65
2021/06/23 02:58:24;;;;;;;6.47;5.47;;;20.00;95.50;;;;;;5095161;28;20473;-66
2021/06/23 03:00:52;;;;;;;7.60;5.30;;;20.00;95.50;;;;;;5095622;28;20465;-66
2021/06/23 03:03:19;;;;;;;6.20;5.57;;;20.00;95.40;;;;;;5095155;28;20469;-66
2021/06/23 03:05:47;;;;;;;5.17;4.67;;;20.00;95.40;;;;;;5095621;28;20464;-66
2021/06/23 03:08:15;;;;;;;6.40;5.90;;;20.00;95.30;;;;;;5095472;28;20476;-66
2021/06/23 03:10:42;;;;;;;5.43;4.60;;;19.90;95.20;;;;;;5077721;28;20449;-66
2021/06/23 03:13:09;;;;;;;8.80;4.73;;;19.90;95.10;;;;;;5075122;28;20466;-66
2021/06/23 03:15:37;;;;;;;6.30;4.37;;;19.90;94.80;;;;;;5074799;28;20482;-66
2021/06/23 03:18:04;;;;;;;6.93;5.43;;;19.90;94.70;;;;;;5074997;28;20462;-65
2021/06/23 03:20:32;;;;;;;8.07;5.57;;;20.00;94.50;;;;;;5074486;28;20812;-65
2021/06/23 03:22:59;;;;;;;6.50;5.43;;;20.00;94.30;;;;;;5075183;28;20503;-66
2021/06/23 03:25:27;;;;;;;4.93;4.50;;;20.00;94.10;;;;;;5074670;28;20469;-66
2021/06/23 03:27:55;;;;;;;5.53;4.93;;;20.00;94.10;;;;;;5074738;28;20480;-66
2021/06/23 03:30:24;;;;;;;6.80;6.10;;;20.00;94.10;;;;;;5074560;28;20959;-66
2021/06/23 03:32:51;;;;;;;8.00;5.97;;;20.00;94.00;;;;;;5079112;28;20470;-66
2021/06/23 03:35:19;;;;;;;6.23;5.63;;;20.00;93.90;;;;;;5094992;28;20474;-66
2021/06/23 03:37:46;;;;;;;6.50;5.80;;;20.00;93.90;;;;;;5094578;28;21297;-66
2021/06/23 03:40:13;;;;;;;8.70;5.87;;;20.00;93.90;;;;;;5094833;28;20487;-65
2021/06/23 03:42:42;;;;;;;11.87;6.03;;;20.00;93.90;;;;;;5093863;28;20460;-66
2021/06/23 03:45:09;;;;;;;6.33;5.70;;;20.00;93.80;;;;;;5094991;28;20479;-65
2021/06/23 03:47:36;;;;;;;9.90;5.70;;;20.00;93.70;;;;;;5094229;28;20810;-66
2021/06/23 03:50:04;;;;;;;6.90;6.10;;;20.00;93.70;;;;;;5094631;28;20474;-66
2021/06/23 03:52:31;;;;;;;8.00;6.70;;;20.00;93.70;;;;;;5094218;28;20473;-65
2021/06/23 03:54:57;;;;;;;8.03;5.47;;;20.00;93.70;;;;;;5094684;28;20478;-66
2021/06/23 03:57:25;;;;;;;6.43;5.60;;;20.00;93.80;;;;;;5094093;28;20480;-66
2021/06/23 03:59:53;;;;;;;7.67;5.97;;;20.00;93.80;;;;;;5094532;28;20469;-66
2021/06/23 04:02:20;;;;;;;6.10;5.50;;;20.00;93.80;;;;;;5094513;28;20465;-65
2021/06/23 04:04:47;;;;;;;10.40;5.80;;;20.00;93.80;;;;;;5093906;28;20462;-66
2021/06/23 04:07:14;;;;;;;8.33;6.23;;;19.90;93.70;;;;;;5094210;28;20500;-65
2021/06/23 04:09:41;;;;;;;6.83;5.60;;;19.90;93.70;;;;;;5084740;28;20777;-66
2021/06/23 04:12:09;;;;;;;6.40;5.80;;;19.90;93.70;;;;;;5073965;28;20868;-66
2021/06/23 04:14:37;;;;;;;7.67;6.70;;;19.90;93.80;;;;;;5073646;28;20571;-66
2021/06/23 04:17:05;;;;;;;10.37;7.40;;;19.90;93.90;;;;;;5073265;28;21063;-65
2021/06/23 04:19:32;;;;;;;8.47;7.70;;;19.90;93.90;;;;;;5073427;28;20475;-66
2021/06/23 04:21:59;;;;;;;7.53;6.73;;;19.90;94.00;;;;;;5073978;28;20483;-66
2021/06/23 04:24:26;;;;;;;9.47;7.43;;;19.90;94.00;;;;;;5073292;28;21112;-66
2021/06/23 04:26:53;;;;;;;10.27;7.60;;;19.90;94.00;;;;;;5073609;28;20472;-66
2021/06/23 04:29:20;;;;;;;11.00;7.00;;;19.90;94.00;;;;;;5073557;28;20481;-66
2021/06/23 04:31:47;;;;;;;7.67;6.90;;;20.00;94.10;;;;;;5073032;28;20475;-66
2021/06/23 04:34:15;;;;;;;8.13;6.60;;;20.00;94.20;;;;;;5089783;28;20472;-66
2021/06/23 04:36:42;;;;;;;8.63;6.50;;;20.00;94.10;;;;;;5093424;28;20864;-66
2021/06/23 04:39:09;;;;;;;6.90;6.20;;;20.10;94.20;;;;;;5093656;28;20499;-66
2021/06/23 04:41:36;;;;;;;8.00;7.20;;;20.10;94.20;;;;;;5092869;28;20968;-66
2021/06/23 04:44:03;;;;;;;8.37;6.90;;;20.10;94.20;;;;;;5093702;28;20466;-66
2021/06/23 04:46:32;;;;;;;8.10;6.00;;;20.20;94.20;;;;;;5093141;28;20990;-66
2021/06/23 04:48:59;;;;;;;6.30;5.80;;;20.20;94.20;;;;;;5093686;28;20549;-66
2021/06/23 04:51:28;;;;;;;6.33;5.73;;;20.20;94.20;;;;;;5093421;28;20457;-66
2021/06/23 04:53:55;;;;;;;8.27;6.50;;;20.30;94.20;;;;;;5093283;28;20926;-64
2021/06/23 04:56:22;;;;;;;5.60;5.10;;;20.40;94.10;;;;;;5093533;28;20465;-65
2021/06/23 04:58:49;;;;;;;7.07;6.03;;;20.40;94.10;;;;;;5092749;28;20475;-65
2021/06/23 05:01:16;;;;;;;7.33;5.20;;;20.50;94.00;;;;;;5093396;28;20507;-66
2021/06/23 05:03:42;;;;;;;5.50;5.00;;;20.50;93.90;;;;;;5092937;28;20459;-66
2021/06/23 05:06:09;;;;;;;5.43;4.93;;;20.60;93.90;;;;;;5093400;28;20471;-66
2021/06/23 05:08:37;;;;;;;8.63;5.80;;;20.60;93.90;;;;;;5092643;28;20499;-66
2021/06/23 05:11:04;;;;;;;6.47;5.50;;;20.50;93.90;;;;;;5072746;28;20473;-66
2021/06/23 05:13:31;;;;;;;5.60;4.27;;;20.50;93.90;;;;;;5072544;28;20488;-66
2021/06/23 05:15:59;;;;;;;6.50;5.93;;;20.60;93.90;;;;;;5072918;28;20465;-66
2021/06/23 05:18:28;;;;;;;7.40;5.80;;;20.60;93.90;;;;;;5072481;28;20980;-66
2021/06/23 05:20:57;;;;;;;9.00;5.73;;;20.70;93.80;;;;;;5072315;28;20470;-66
2021/06/23 05:23:23;;;;;;;7.87;5.87;;;20.70;93.80;;;;;;5072920;28;20968;-66
2021/06/23 05:25:51;;;;;;;5.43;4.33;;;20.70;93.80;;;;;;5072326;28;20470;-65
2021/06/23 05:28:18;;;;;;;7.07;6.47;;;20.70;93.80;;;;;;5071857;28;20459;-66
2021/06/23 05:30:45;;;;;;;7.37;5.13;;;20.70;93.60;;;;;;5072256;28;20462;-66
2021/06/23 05:33:12;;;;;;;7.00;5.43;;;20.80;93.50;;;;;;5080231;28;20806;-66
2021/06/23 05:35:39;;;;;;;6.80;4.77;;;20.80;93.40;;;;;;5092138;28;20462;-65
2021/06/23 05:38:06;;;;;;;4.77;4.00;;;20.80;93.30;;;;;;5092824;28;20465;-66
2021/06/23 05:40:33;;;;;;;6.53;4.80;;;20.80;93.10;;;;;;5092642;28;20472;-66
2021/06/23 05:43:01;;;;;;;4.97;4.57;;;20.80;93.00;;;;;;5091770;28;20475;-66
2021/06/23 05:45:28;;;;;;;5.33;4.67;;;20.90;92.90;;;;;;5092745;28;20467;-66
2021/06/23 05:47:55;;;;;;;5.57;4.23;;;20.90;92.90;;;;;;5092187;28;20473;-66
2021/06/23 05:50:22;;;;;;;5.50;3.80;;;20.90;92.90;;;;;;5092514;28;20982;-66
2021/06/23 05:52:48;;;;;;;4.37;3.97;;;20.90;92.90;;;;;;5092346;28;20473;-66
2021/06/23 05:55:20;;;;;;;5.50;4.60;;;20.90;92.90;;;;;;5092383;28;20472;-66
2021/06/23 05:57:50;;;;;;;6.00;4.40;;;21.00;92.80;;;;;;5091933;28;20480;-66
2021/06/23 06:00:20;;;;;;;4.60;4.20;;;21.10;92.80;;;;;;5092720;28;20465;-66
2021/06/23 06:02:47;;;;;;;4.80;3.33;;;21.10;92.70;;;;;;5092014;28;20473;-66
2021/06/23 06:05:15;;;;;;;4.20;3.50;;;21.20;92.50;;;;;;5092609;28;20465;-66
2021/06/23 06:07:41;;;;;;;10.00;5.07;;;21.20;92.40;;;;;;5092220;28;20477;-66
2021/06/23 06:10:10;;;;;;;10.47;4.83;;;21.20;92.30;;;;;;5079423;28;20473;-66
2021/06/23 06:12:37;;;;;;;5.60;3.70;;;21.30;92.30;;;;;;5072220;28;20473;-66
2021/06/23 06:15:05;;;;;;;3.70;3.40;;;21.30;92.30;;;;;;5072151;28;21027;-66
2021/06/23 06:17:34;;;;;;;3.70;3.10;;;21.40;92.20;;;;;;5071998;28;20466;-66
2021/06/23 06:20:00;;;;;;;8.10;3.97;;;21.30;92.20;;;;;;5071746;28;20800;-66
2021/06/23 06:22:28;;;;;;;4.67;3.87;;;21.40;92.20;;;;;;5072301;28;20994;-66
2021/06/23 06:24:55;;;;;;;5.43;4.97;;;21.40;92.00;;;;;;5071715;28;20466;-66
2021/06/23 06:27:22;;;;;;;6.27;4.60;;;21.40;92.00;;;;;;5072138;28;20488;-66
2021/06/23 06:29:49;;;;;;;5.70;4.57;;;21.40;91.90;;;;;;5071753;28;20454;-66
2021/06/23 06:32:16;;;;;;;7.80;6.80;;;21.40;91.90;;;;;;5072005;28;20959;-66
2021/06/23 06:34:44;;;;;;;6.53;5.80;;;21.50;91.90;;;;;;5071610;28;20473;-66
2021/06/23 06:37:11;;;;;;;6.63;5.37;;;21.50;91.90;;;;;;5072047;28;20462;-66
2021/06/23 06:39:38;;;;;;;4.93;4.47;;;21.50;91.80;;;;;;5073548;28;20510;-66
2021/06/23 06:42:06;;;;;;;6.27;4.20;;;21.60;91.90;;;;;;5075666;28;20927;-66
2021/06/23 06:44:33;;;;;;;11.67;6.23;;;21.60;91.90;;;;;;5083751;28;20468;-67
2021/06/23 06:47:01;;;;;;;6.63;4.37;;;21.70;91.60;;;;;;5095453;28;20950;-66
2021/06/23 06:49:29;;;;;;;6.13;4.67;;;21.70;91.60;;;;;;5095869;28;20557;-66
2021/06/23 06:51:58;;;;;;;9.07;5.70;;;21.70;91.50;;;;;;5095218;28;20461;-65
2021/06/23 06:54:25;;;;;;;12.30;6.17;;;21.70;91.60;;;;;;5095595;28;20540;-65
2021/06/23 06:56:52;;;;;;;8.03;5.43;;;21.80;92.00;;;;;;5095348;28;20902;-65
2021/06/23 06:59:19;;;;;;;9.13;4.63;;;21.90;91.60;;;;;;5095565;28;20534;-66
2021/06/23 07:01:46;;;;;;;5.93;4.20;;;22.00;91.50;;;;;;5095151;28;20480;-66
2021/06/23 07:04:14;;;;;;;9.43;5.03;;;22.10;91.30;;;;;;5095615;28;20461;-66
2021/06/23 07:06:41;;;;;;;7.10;4.77;;;22.20;91.10;;;;;;5095536;28;20795;-65
2021/06/23 07:09:09;;;;;;;7.37;3.80;;;22.30;90.70;;;;;;5090525;28;20952;-65
2021/06/23 07:11:36;;;;;;;7.27;4.70;;;22.40;90.20;;;;;;5075232;28;20480;-66
2021/06/23 07:14:04;;;;;;;5.83;4.20;;;22.50;90.10;;;;;;5074683;28;20452;-66
2021/06/23 07:16:31;;;;;;;8.27;4.13;;;22.50;90.10;;;;;;5075228;28;20496;-66
2021/06/23 07:18:57;;;;;;;5.73;4.47;;;22.60;89.50;;;;;;5074494;28;20470;-66
2021/06/23 07:21:24;;;;;;;5.40;3.70;;;22.60;89.30;;;;;;5075132;28;20485;-66
2021/06/23 07:23:53;;;;;;;4.73;3.67;;;22.60;89.40;;;;;;5074326;28;20952;-66
2021/06/23 07:26:22;;;;;;;7.10;4.30;;;22.60;89.30;;;;;;5075110;28;21041;-66
2021/06/23 07:28:51;;;;;;;6.77;4.60;;;22.60;89.30;;;;;;5074496;28;20481;-66
2021/06/23 07:31:22;;;;;;;5.70;5.07;;;22.60;89.10;;;;;;5074774;28;20781;-66
2021/06/23 07:33:53;;;;;;;5.27;3.80;;;22.70;89.40;;;;;;5087211;28;20465;-66
2021/06/23 07:36:35;;;;;;;7.17;3.70;;;22.70;89.30;;;;;;5095031;28;20526;-66
2021/06/23 07:39:02;;;;;;;7.13;4.00;;;22.80;89.10;;;;;;5093988;28;20469;-67
2021/06/23 07:41:31;;;;;;;9.07;4.23;;;22.90;88.70;;;;;;5094194;28;20466;-67
2021/06/23 07:43:58;;;;;;;4.67;3.90;;;23.00;87.90;;;;;;5093114;28;20465;-66
2021/06/23 07:46:26;;;;;;;11.33;4.40;;;23.20;87.50;;;;;;5093338;28;20462;-67
2021/06/23 07:48:55;;;;;;;7.47;4.40;;;23.30;87.00;;;;;;5093219;28;20959;-67
2021/06/23 07:51:28;;;;;;;7.07;4.57;;;23.40;86.80;;;;;;5092984;28;20530;-67
2021/06/23 07:56:54;;;;;;;6.07;3.83;;;23.50;85.90;;;;;;5093610;28;20528;-67
2021/06/23 08:10:24;;;;;;;4.23;3.40;;;23.70;84.80;;;;;;5080677;28;20522;-66
2021/06/23 08:12:54;;;;;;;10.23;3.83;;;23.70;84.50;;;;;;5077418;28;20540;-66
2021/06/23 08:15:22;;;;;;;5.33;3.00;;;23.80;84.10;;;;;;5093916;28;20473;-67
2021/06/23 08:17:49;;;;;;;14.90;4.70;;;23.90;83.90;;;;;;5080429;28;20471;-66
2021/06/23 08:20:16;;;;;;;5.40;3.97;;;23.90;83.90;;;;;;5073610;28;20467;-65
2021/06/23 08:22:43;;;;;;;8.57;3.93;;;23.90;83.80;;;;;;5094207;28;20462;-67
2021/06/23 08:25:11;;;;;;;8.20;3.87;;;23.90;83.20;;;;;;5093493;28;20476;-65
2021/06/23 08:27:38;;;;;;;4.73;3.23;;;23.90;82.10;;;;;;5094207;28;20473;-66
2021/06/23 08:30:08;;;;;;;4.47;3.10;;;23.90;81.90;;;;;;5093795;28;20465;-66
2021/06/23 08:32:35;;;;;;;4.73;2.97;;;24.00;81.70;;;;;;5085225;28;20458;-67
2021/06/23 08:35:02;;;;;;;4.40;2.80;;;24.00;80.90;;;;;;5073620;28;20458;-67
2021/06/23 08:37:29;;;;;;;4.77;2.70;;;24.10;80.20;;;;;;5089918;28;20955;-67
2021/06/23 08:39:56;;;;;;;3.17;2.87;;;24.20;79.00;;;;;;5088255;28;20817;-67
2021/06/23 08:42:23;;;;;;;5.23;3.03;;;24.30;78.70;;;;;;5073040;28;20532;-67
2021/06/23 08:44:51;;;;;;;5.47;3.80;;;24.40;78.30;;;;;;5092443;28;20485;-67
2021/06/23 08:47:19;;;;;;;5.20;3.40;;;24.50;79.10;;;;;;5093142;28;20814;-67
2021/06/23 08:49:47;;;;;;;3.93;3.07;;;24.50;77.40;;;;;;5093607;28;20461;-67
2021/06/23 08:52:14;;;;;;;5.77;3.30;;;24.50;76.90;;;;;;5093120;28;20910;-67
2021/06/23 08:54:42;;;;;;;4.53;3.10;;;24.50;76.70;;;;;;5093503;28;20947;-67
2021/06/23 08:57:10;;;;;;;7.83;3.73;;;24.50;76.30;;;;;;5093527;28;20476;-67
2021/06/23 08:59:40;;;;;;;5.73;2.90;;;24.50;75.50;;;;;;5092889;28;20468;-67
2021/06/23 09:02:08;;;;;;;4.90;3.37;;;24.50;75.40;;;;;;5093343;28;20470;-67
2021/06/23 09:04:38;;;;;;;6.40;4.10;;;24.50;75.60;;;;;;5092977;28;20468;-67
2021/06/23 09:07:05;;;;;;;129.53;98.73;;;24.50;75.40;;;;;;5093112;28;20469;-66
2021/06/23 09:09:35;;;;;;;25.90;22.13;;;24.40;76.10;;;;;;5092854;28;20472;-67
2021/06/23 09:12:04;;;;;;;17.37;10.77;;;24.40;76.90;;;;;;5093117;28;21052;-67
2021/06/23 09:14:34;;;;;;;7.07;4.90;;;24.40;77.50;;;;;;5092714;28;20461;-67
2021/06/23 09:17:13;;;;;;;6.83;5.97;;;24.40;77.90;;;;;;5092996;28;20465;-66
2021/06/23 09:19:44;;;;;;;6.80;4.70;;;24.50;78.90;;;;;;5092799;28;20458;-67
2021/06/23 09:22:35;;;;;;;8.83;6.57;;;24.50;78.40;;;;;;5092883;28;21028;-67
2021/06/23 09:25:04;;;;;;;13.40;8.83;;;24.60;79.70;;;;;;5092985;28;20453;-67
2021/06/23 09:27:31;;;;;;;9.73;8.50;;;24.60;83.10;;;;;;5092889;28;20465;-67
2021/06/23 09:30:23;;;;;;;6.00;4.97;;;24.80;82.00;;;;;;5092610;28;20471;-66
2021/06/23 09:33:09;;;;;;;11.60;10.40;;;24.80;79.40;;;;;;5092719;28;20463;-67
2021/06/23 09:35:39;;;;;;;17.97;16.10;;;24.80;78.70;;;;;;5093166;28;20532;-67
2021/06/23 09:38:06;;;;;;;14.10;10.07;;;24.80;78.60;;;;;;5092424;28;20543;-67
2021/06/23 09:40:42;;;;;;;8.00;6.97;;;24.90;77.80;;;;;;5092797;28;21001;-67
2021/06/23 09:43:10;;;;;;;6.93;5.23;;;24.90;77.10;;;;;;5072668;28;21047;-67
2021/06/23 09:45:37;;;;;;;5.70;3.23;;;25.00;76.40;;;;;;5072548;28;20458;-67
2021/06/23 09:48:06;;;;;;;4.13;3.73;;;25.10;74.20;;;;;;5072092;28;20478;-66
2021/06/23 09:50:36;;;;;;;8.33;3.70;;;25.20;73.60;;;;;;5072538;28;20470;-66
2021/06/23 09:53:08;;;;;;;5.50;3.90;;;25.20;72.80;;;;;;5071759;28;20869;-67
2021/06/23 09:55:37;;;;;;;6.07;3.63;;;25.30;72.20;;;;;;5072673;28;20458;-67
2021/06/23 09:58:11;;;;;;;5.90;4.70;;;25.30;71.90;;;;;;5072085;28;20545;-67
2021/06/23 10:00:58;;;;;;;6.57;3.50;;;25.30;71.70;;;;;;5072213;28;20523;-67
2021/06/23 10:03:26;;;;;;;5.10;3.30;;;25.30;71.40;;;;;;5072601;28;20948;-67
2021/06/23 10:05:53;;;;;;;5.93;3.57;;;25.30;71.80;;;;;;5072176;28;20453;-67
2021/06/23 10:08:25;;;;;;;4.17;3.40;;;25.30;71.60;;;;;;5072462;28;20485;-67
2021/06/23 10:10:53;;;;;;;4.03;3.67;;;25.30;70.80;;;;;;5071701;28;20465;-67
2021/06/23 10:13:23;;;;;;;6.20;5.47;;;25.40;70.60;;;;;;5072448;28;20545;-67
2021/06/23 10:15:50;;;;;;;7.63;4.40;;;25.40;70.00;;;;;;5075581;28;20462;-67
2021/06/23 10:18:18;;;;;;;7.93;3.77;;;25.40;70.10;;;;;;5076079;28;20498;-66
2021/06/23 10:20:46;;;;;;;6.67;3.50;;;25.40;70.10;;;;;;5075533;28;20472;-67
2021/06/23 10:23:13;;;;;;;6.73;3.50;;;25.40;70.10;;;;;;5076025;28;20466;-67
2021/06/23 10:25:42;;;;;;;4.23;3.17;;;25.40;69.90;;;;;;5075730;28;20466;-67
2021/06/23 10:28:11;;;;;;;5.53;3.90;;;25.40;69.80;;;;;;5075987;28;20470;-67
2021/06/23 10:30:38;;;;;;;10.37;5.57;;;25.40;69.80;;;;;;5075562;28;20785;-67
2021/06/23 10:33:06;;;;;;;6.17;5.57;;;25.40;69.80;;;;;;5093749;28;20807;-67
2021/06/23 10:35:32;;;;;;;7.43;5.20;;;25.40;70.20;;;;;;5095751;28;20544;-66
2021/06/23 10:38:00;;;;;;;6.50;4.50;;;25.40;69.70;;;;;;5096239;28;20476;-66
2021/06/23 10:40:28;;;;;;;4.87;4.47;;;25.30;69.90;;;;;;5095841;28;20465;-66
2021/06/23 10:43:11;;;;;;;5.83;4.30;;;25.30;69.90;;;;;;5095692;28;20864;-66
2021/06/23 10:45:45;;;;;;;6.13;4.33;;;25.40;70.20;;;;;;5086776;28;20462;-66
2021/06/23 10:48:12;;;;;;;5.80;5.27;;;25.40;70.40;;;;;;5075679;28;20799;-66
2021/06/23 10:50:39;;;;;;;21.20;15.17;;;25.30;70.40;;;;;;5075123;28;20454;-66
2021/06/23 10:53:31;;;;;;;11.10;10.00;;;25.20;70.70;;;;;;5075524;28;20465;-66
2021/06/23 10:55:59;;;;;;;7.00;6.30;;;25.20;70.80;;;;;;5075202;28;21119;-66
2021/06/23 10:58:29;;;;;;;7.03;5.33;;;25.10;70.70;;;;;;5075507;28;20466;-66
2021/06/23 11:01:11;;;;;;;6.10;3.50;;;25.10;71.00;;;;;;5074786;28;20842;-66
2021/06/23 11:04:02;;;;;;;5.83;4.40;;;25.00;71.10;;;;;;5074731;28;20462;-66
2021/06/23 11:06:43;;;;;;;7.00;4.17;;;25.00;71.40;;;;;;5060662;28;20808;-66
2021/06/23 11:09:21;;;;;;;8.50;4.57;;;24.90;71.60;;;;;;5075354;28;20561;-67
2021/06/23 11:11:48;;;;;;;7.60;3.70;;;24.80;72.60;;;;;;5074942;28;20450;-67
2021/06/23 11:14:18;;;;;;;6.90;3.33;;;24.80;71.80;;;;;;5075365;28;20855;-67
2021/06/23 11:16:45;;;;;;;5.77;3.53;;;24.70;72.30;;;;;;5074873;28;20799;-66
2021/06/23 11:19:13;;;;;;;7.23;3.83;;;24.60;73.10;;;;;;5074831;28;20476;-66
2021/06/23 11:21:42;;;;;;;3.53;3.23;;;24.60;74.20;;;;;;5074537;28;20485;-66
2021/06/23 11:24:14;;;;;;;6.27;3.80;;;24.50;74.60;;;;;;5075055;28;20946;-66
2021/06/23 11:27:02;;;;;;;5.60;3.93;;;24.40;74.70;;;;;;5073225;28;20470;-66
2021/06/23 11:29:32;;;;;;;9.00;4.33;;;24.30;75.20;;;;;;5074440;28;20781;-66
2021/06/23 11:32:03;;;;;;;4.43;3.70;;;24.30;76.10;;;;;;5074767;28;20458;-66
2021/06/23 11:34:51;;;;;;;6.40;4.93;;;24.30;76.30;;;;;;5074474;28;20565;-66
2021/06/23 11:37:19;;;;;;;7.03;4.90;;;24.20;77.60;;;;;;5074881;28;20462;-66
2021/06/23 11:39:47;;;;;;;7.30;4.13;;;24.10;78.60;;;;;;5074234;28;20466;-66
2021/06/23 11:42:15;;;;;;;7.27;5.00;;;24.00;79.50;;;;;;5086416;28;20464;-66
2021/06/23 11:44:43;;;;;;;7.57;5.13;;;24.00;81.20;;;;;;5093605;28;20468;-66
2021/06/23 11:47:11;;;;;;;10.43;7.90;;;23.90;81.50;;;;;;5074314;28;20481;-66
2021/06/23 11:49:39;;;;;;;7.87;5.60;;;23.90;82.00;;;;;;5073958;28;20471;-66
2021/06/23 11:52:08;;;;;;;9.47;4.87;;;23.80;82.00;;;;;;5074261;28;20955;-66
2021/06/23 11:54:36;;;;;;;10.50;6.50;;;23.80;83.00;;;;;;5073840;28;20480;-66
2021/06/23 11:57:03;;;;;;;7.90;5.40;;;23.80;82.30;;;;;;5074170;28;20462;-66
2021/06/23 11:59:30;;;;;;;7.73;6.30;;;23.70;82.20;;;;;;5074055;28;20473;-66
2021/06/23 12:01:58;;;;;;;8.17;5.80;;;23.70;82.30;;;;;;5074228;28;20466;-66
2021/06/23 12:04:26;;;;;;;9.57;6.50;;;23.70;82.60;;;;;;5074230;28;20470;-66
2021/06/23 12:06:53;;;;;;;7.23;6.23;;;23.70;81.90;;;;;;5074084;28;21529;-66
2021/06/23 12:09:20;;;;;;;8.13;4.83;;;23.70;82.10;;;;;;5074079;28;20970;-66
2021/06/23 12:11:47;;;;;;;10.60;6.20;;;23.70;82.30;;;;;;5073169;28;20476;-66
2021/06/23 12:14:14;;;;;;;19.03;16.90;;;23.70;82.10;;;;;;5074128;28;20458;-65
2021/06/23 12:16:41;;;;;;;23.77;21.40;;;23.60;81.70;;;;;;5073622;28;20628;-66
2021/06/23 12:19:10;;;;;;;14.73;11.00;;;23.60;81.40;;;;;;5073497;28;20463;-66
2021/06/23 12:21:37;;;;;;;7.80;6.60;;;23.60;81.20;;;;;;5075154;28;20459;-66
2021/06/23 12:24:04;;;;;;;8.10;6.33;;;23.50;80.90;;;;;;5073773;28;20467;-67
2021/06/23 12:26:31;;;;;;;18.17;14.50;;;23.50;80.90;;;;;;5073558;28;20565;-66
2021/06/23 12:28:58;;;;;;;16.93;15.20;;;23.50;81.00;;;;;;5083865;28;20469;-66
2021/06/23 12:31:25;;;;;;;12.87;11.20;;;23.40;81.20;;;;;;5093782;28;20471;-68
2021/06/23 12:33:52;;;;;;;8.00;7.03;;;23.40;81.60;;;;;;5090354;28;20449;-67
2021/06/23 12:36:20;;;;;;;10.13;6.87;;;23.40;82.60;;;;;;5083423;28;20980;-65
2021/06/23 12:38:47;;;;;;;6.03;4.70;;;23.30;83.50;;;;;;5072730;28;20469;-67
2021/06/23 12:41:13;;;;;;;6.63;5.30;;;23.30;84.30;;;;;;5077054;28;20815;-67
2021/06/23 12:43:41;;;;;;;6.90;5.73;;;23.20;85.20;;;;;;5081661;28;20823;-65
2021/06/23 12:46:08;;;;;;;7.77;6.57;;;23.10;85.80;;;;;;5073547;28;20466;-66
2021/06/23 12:48:35;;;;;;;8.60;5.80;;;23.10;86.40;;;;;;5072857;28;20980;-66
2021/06/23 12:51:01;;;;;;;9.70;6.20;;;23.00;87.50;;;;;;5073405;28;20473;-67
2021/06/23 12:53:30;;;;;;;7.70;5.50;;;22.90;88.70;;;;;;5073350;28;20466;-66
2021/06/23 12:55:56;;;;;;;6.60;5.20;;;22.80;89.30;;;;;;5072827;28;20462;-67
2021/06/23 12:58:23;;;;;;;12.87;5.30;;;22.70;90.00;;;;;;5073148;28;20480;-67
2021/06/23 13:00:50;;;;;;;10.83;6.60;;;22.70;90.30;;;;;;5072776;28;20480;-66
2021/06/23 13:03:19;;;;;;;8.53;6.90;;;22.60;90.00;;;;;;5072900;28;20466;-67
2021/06/23 13:05:46;;;;;;;9.47;6.40;;;22.60;90.00;;;;;;5072687;28;20462;-66
2021/06/23 13:08:13;;;;;;;8.03;5.50;;;22.60;90.50;;;;;;5072921;28;20477;-67